createdAt,value
2023-01-20T00:00:09.331Z,969.72
2023-01-20T00:01:09.242Z,969.74
2023-01-20T00:02:09.157Z,969.78
2023-01-20T00:03:09.069Z,969.81
2023-01-20T00:04:08.988Z,969.82
2023-01-20T00:05:08.898Z,969.82
2023-01-20T00:06:08.811Z,969.86
2023-01-20T00:07:08.731Z,969.85
2023-01-20T00:08:08.641Z,969.86
2023-01-20T00:09:08.552Z,969.91
2023-01-20T00:10:08.468Z,969.88
2023-01-20T00:11:08.387Z,969.90
2023-01-20T00:12:08.291Z,969.92
2023-01-20T00:13:08.207Z,969.92
2023-01-20T00:14:08.121Z,969.95
2023-01-20T00:15:08.033Z,969.93
2023-01-20T00:16:08.180Z,969.89
2023-01-20T00:17:07.861Z,969.94
2023-01-20T00:18:07.771Z,969.97
2023-01-20T00:19:07.694Z,969.94
2023-01-20T00:20:07.606Z,969.95
2023-01-20T00:21:07.518Z,969.97
2023-01-20T00:22:07.441Z,970.00
2023-01-20T00:23:07.355Z,970.00
2023-01-20T00:24:07.260Z,969.98
2023-01-20T00:25:07.167Z,969.99
2023-01-20T00:26:07.083Z,970.01
2023-01-20T00:27:06.993Z,969.99
2023-01-20T00:28:06.916Z,970.00
2023-01-20T00:29:06.833Z,969.99
2023-01-20T00:30:06.747Z,970.00
2023-01-20T00:31:06.685Z,970.01
2023-01-20T00:32:06.566Z,970.04
2023-01-20T00:33:06.478Z,970.03
2023-01-20T00:34:06.400Z,970.01
2023-01-20T00:35:06.305Z,970.01
2023-01-20T00:36:06.223Z,970.02
2023-01-20T00:37:06.136Z,970.05
2023-01-20T00:38:06.051Z,970.03
2023-01-20T00:39:05.964Z,970.04
2023-01-20T00:40:05.890Z,970.08
2023-01-20T00:41:05.790Z,970.10
2023-01-20T00:42:05.707Z,970.12
2023-01-20T00:43:05.616Z,970.12
2023-01-20T00:44:05.531Z,970.13
2023-01-20T00:45:05.446Z,970.15
2023-01-20T00:46:05.362Z,970.17
2023-01-20T00:47:05.273Z,970.19
2023-01-20T00:48:05.191Z,970.18
2023-01-20T00:49:05.118Z,970.22
2023-01-20T00:50:05.027Z,970.22
2023-01-20T00:51:04.921Z,970.26
2023-01-20T00:52:04.849Z,970.23
2023-01-20T00:53:04.755Z,970.22
2023-01-20T00:54:04.678Z,970.30
2023-01-20T00:55:04.576Z,970.26
2023-01-20T00:56:04.496Z,970.29
2023-01-20T00:57:04.406Z,970.32
2023-01-20T00:58:04.323Z,970.34
2023-01-20T00:59:04.240Z,970.33
2023-01-20T01:00:04.164Z,970.36
2023-01-20T01:01:04.176Z,970.37
2023-01-20T01:02:04.056Z,970.39
2023-01-20T01:03:03.889Z,970.39
2023-01-20T01:04:03.801Z,970.40
2023-01-20T01:05:03.715Z,970.40
2023-01-20T01:06:03.638Z,970.43
2023-01-20T01:07:03.542Z,970.44
2023-01-20T01:08:03.466Z,970.42
2023-01-20T01:09:03.367Z,970.43
2023-01-20T01:10:03.288Z,970.45
2023-01-20T01:11:03.196Z,970.44
2023-01-20T01:12:03.110Z,970.42
2023-01-20T01:13:03.026Z,970.44
2023-01-20T01:14:02.944Z,970.43
2023-01-20T01:15:02.848Z,970.42
2023-01-20T01:16:02.816Z,970.46
2023-01-20T01:17:02.682Z,970.48
2023-01-20T01:18:02.601Z,970.45
2023-01-20T01:19:02.505Z,970.48
2023-01-20T01:20:02.421Z,970.50
2023-01-20T01:21:02.339Z,970.49
2023-01-20T01:22:02.259Z,970.53
2023-01-20T01:23:02.166Z,970.52
2023-01-20T01:24:02.076Z,970.51
2023-01-20T01:25:01.997Z,970.51
2023-01-20T01:26:01.907Z,970.53
2023-01-20T01:27:01.816Z,970.53
2023-01-20T01:28:01.733Z,970.54
2023-01-20T01:29:01.640Z,970.48
2023-01-20T01:30:01.556Z,970.51
2023-01-20T01:31:01.512Z,970.51
2023-01-20T01:32:01.385Z,970.51
2023-01-20T01:33:01.299Z,970.49
2023-01-20T01:34:01.211Z,970.53
2023-01-20T01:35:01.120Z,970.49
2023-01-20T01:36:01.060Z,970.53
2023-01-20T01:37:00.954Z,970.47
2023-01-20T01:38:00.866Z,970.52
2023-01-20T01:39:00.785Z,970.53
2023-01-20T01:40:00.703Z,970.55
2023-01-20T01:41:00.624Z,970.58
2023-01-20T01:42:00.519Z,970.58
2023-01-20T01:43:00.434Z,970.59
2023-01-20T01:44:00.352Z,970.57
2023-01-20T01:45:00.261Z,970.61
2023-01-20T01:46:00.270Z,970.60
2023-01-20T01:47:00.102Z,970.62
2023-01-20T01:48:00.007Z,970.59
2023-01-20T01:48:59.918Z,970.62
2023-01-20T01:49:59.831Z,970.61
2023-01-20T01:50:59.743Z,970.62
2023-01-20T01:51:59.671Z,970.64
2023-01-20T01:52:59.574Z,970.67
2023-01-20T01:53:59.484Z,970.69
2023-01-20T01:54:59.402Z,970.67
2023-01-20T01:55:59.309Z,970.68
2023-01-20T01:56:59.224Z,970.67
2023-01-20T01:57:59.151Z,970.64
2023-01-20T01:58:59.054Z,970.67
2023-01-20T01:59:58.971Z,970.69
2023-01-20T02:00:58.964Z,970.69
2023-01-20T02:01:58.850Z,970.66
2023-01-20T02:02:58.714Z,970.65
2023-01-20T02:03:58.621Z,970.61
2023-01-20T02:04:58.540Z,970.66
2023-01-20T02:05:58.452Z,970.65
2023-01-20T02:06:58.367Z,970.65
2023-01-20T02:07:58.281Z,970.66
2023-01-20T02:08:58.190Z,970.63
2023-01-20T02:09:58.104Z,970.67
2023-01-20T02:10:58.027Z,970.64
2023-01-20T02:11:57.934Z,970.66
2023-01-20T02:12:57.845Z,970.63
2023-01-20T02:13:57.755Z,970.68
2023-01-20T02:14:57.666Z,970.67
2023-01-20T02:15:57.586Z,970.67
2023-01-20T02:16:57.500Z,970.66
2023-01-20T02:17:57.415Z,970.67
2023-01-20T02:18:57.332Z,970.69
2023-01-20T02:19:57.240Z,970.70
2023-01-20T02:20:57.190Z,970.71
2023-01-20T02:21:57.067Z,970.67
2023-01-20T02:22:56.981Z,970.67
2023-01-20T02:23:56.901Z,970.71
2023-01-20T02:24:56.812Z,970.65
2023-01-20T02:25:56.725Z,970.68
2023-01-20T02:26:56.632Z,970.69
2023-01-20T02:27:56.554Z,970.70
2023-01-20T02:28:56.460Z,970.69
2023-01-20T02:29:56.375Z,970.71
2023-01-20T02:30:56.294Z,970.71
2023-01-20T02:31:56.274Z,970.69
2023-01-20T02:32:56.114Z,970.70
2023-01-20T02:33:56.030Z,970.72
2023-01-20T02:34:55.943Z,970.68
2023-01-20T02:35:55.864Z,970.69
2023-01-20T02:36:55.786Z,970.72
2023-01-20T02:37:55.686Z,970.71
2023-01-20T02:38:55.603Z,970.72
2023-01-20T02:39:55.515Z,970.69
2023-01-20T02:40:55.423Z,970.73
2023-01-20T02:41:55.344Z,970.73
2023-01-20T02:42:55.259Z,970.72
2023-01-20T02:43:55.170Z,970.72
2023-01-20T02:44:55.081Z,970.74
2023-01-20T02:45:55.023Z,970.75
2023-01-20T02:46:54.909Z,970.71
2023-01-20T02:47:54.826Z,970.74
2023-01-20T02:48:54.739Z,970.76
2023-01-20T02:49:54.666Z,970.79
2023-01-20T02:50:54.568Z,970.78
2023-01-20T02:51:54.506Z,970.79
2023-01-20T02:52:54.389Z,970.78
2023-01-20T02:53:54.307Z,970.77
2023-01-20T02:54:54.219Z,970.77
2023-01-20T02:55:54.130Z,970.79
2023-01-20T02:56:54.044Z,970.79
2023-01-20T02:57:53.959Z,970.78
2023-01-20T02:58:53.868Z,970.77
2023-01-20T02:59:53.789Z,970.75
2023-01-20T03:00:53.728Z,970.77
2023-01-20T03:01:53.740Z,970.78
2023-01-20T03:02:53.532Z,970.77
2023-01-20T03:03:53.559Z,970.78
2023-01-20T03:04:53.357Z,970.77
2023-01-20T03:05:53.375Z,970.79
2023-01-20T03:06:53.179Z,970.76
2023-01-20T03:07:53.102Z,970.76
2023-01-20T03:08:53.019Z,970.77
2023-01-20T03:09:52.926Z,970.75
2023-01-20T03:10:52.832Z,970.77
2023-01-20T03:11:52.751Z,970.75
2023-01-20T03:12:52.663Z,970.75
2023-01-20T03:13:52.578Z,970.74
2023-01-20T03:14:52.489Z,970.73
2023-01-20T03:15:52.405Z,970.78
2023-01-20T03:16:52.398Z,970.76
2023-01-20T03:17:52.234Z,970.73
2023-01-20T03:18:52.148Z,970.73
2023-01-20T03:19:52.057Z,970.74
2023-01-20T03:20:52.000Z,970.74
2023-01-20T03:21:51.885Z,970.74
2023-01-20T03:22:51.797Z,970.73
2023-01-20T03:23:51.716Z,970.76
2023-01-20T03:24:51.628Z,970.76
2023-01-20T03:25:51.543Z,970.74
2023-01-20T03:26:51.463Z,970.74
2023-01-20T03:27:51.368Z,970.76
2023-01-20T03:28:51.288Z,970.75
2023-01-20T03:29:51.200Z,970.81
2023-01-20T03:30:51.161Z,970.81
2023-01-20T03:31:51.024Z,970.80
2023-01-20T03:32:50.932Z,970.84
2023-01-20T03:33:50.871Z,970.86
2023-01-20T03:34:50.793Z,970.86
2023-01-20T03:35:50.682Z,970.84
2023-01-20T03:36:50.587Z,970.84
2023-01-20T03:37:50.500Z,970.86
2023-01-20T03:38:50.425Z,970.86
2023-01-20T03:39:50.333Z,970.87
2023-01-20T03:40:50.250Z,970.86
2023-01-20T03:41:50.164Z,970.88
2023-01-20T03:42:50.072Z,970.90
2023-01-20T03:43:49.983Z,970.89
2023-01-20T03:44:49.899Z,970.89
2023-01-20T03:45:49.844Z,970.88
2023-01-20T03:46:49.724Z,970.90
2023-01-20T03:47:49.643Z,970.90
2023-01-20T03:48:49.556Z,970.90
2023-01-20T03:49:49.464Z,970.91
2023-01-20T03:50:49.387Z,970.92
2023-01-20T03:51:49.306Z,970.91
2023-01-20T03:52:49.212Z,970.93
2023-01-20T03:53:49.124Z,970.92
2023-01-20T03:54:49.040Z,970.89
2023-01-20T03:55:48.957Z,970.94
2023-01-20T03:56:48.865Z,970.92
2023-01-20T03:57:48.771Z,970.96
2023-01-20T03:58:48.689Z,970.99
2023-01-20T03:59:48.615Z,970.99
2023-01-20T04:00:48.519Z,971.01
2023-01-20T04:01:48.569Z,970.99
2023-01-20T04:02:48.344Z,971.03
2023-01-20T04:03:48.264Z,970.98
2023-01-20T04:04:48.170Z,970.99
2023-01-20T04:05:48.085Z,971.01
2023-01-20T04:06:47.998Z,971.00
2023-01-20T04:07:47.913Z,971.01
2023-01-20T04:08:47.827Z,971.02
2023-01-20T04:09:47.748Z,971.04
2023-01-20T04:10:47.663Z,971.02
2023-01-20T04:11:47.565Z,971.05
2023-01-20T04:12:47.494Z,971.08
2023-01-20T04:13:47.392Z,971.10
2023-01-20T04:14:47.305Z,971.11
2023-01-20T04:15:47.247Z,971.12
2023-01-20T04:16:47.142Z,971.16
2023-01-20T04:17:47.046Z,971.17
2023-01-20T04:18:46.963Z,971.16
2023-01-20T04:19:46.878Z,971.15
2023-01-20T04:20:46.790Z,971.17
2023-01-20T04:21:46.704Z,971.19
2023-01-20T04:22:46.620Z,971.16
2023-01-20T04:23:46.531Z,971.18
2023-01-20T04:24:46.444Z,971.22
2023-01-20T04:25:46.361Z,971.23
2023-01-20T04:26:46.298Z,971.21
2023-01-20T04:27:46.189Z,971.23
2023-01-20T04:28:46.102Z,971.25
2023-01-20T04:29:46.010Z,971.27
2023-01-20T04:30:46.078Z,971.29
2023-01-20T04:31:45.901Z,971.28
2023-01-20T04:32:45.753Z,971.29
2023-01-20T04:33:45.662Z,971.31
2023-01-20T04:34:45.594Z,971.31
2023-01-20T04:35:45.490Z,971.33
2023-01-20T04:36:45.408Z,971.36
2023-01-20T04:37:45.324Z,971.35
2023-01-20T04:38:45.234Z,971.45
2023-01-20T04:39:45.151Z,971.38
2023-01-20T04:40:45.061Z,971.41
2023-01-20T04:41:44.979Z,971.45
2023-01-20T04:42:44.886Z,971.46
2023-01-20T04:43:44.811Z,971.49
2023-01-20T04:44:44.723Z,971.47
2023-01-20T04:45:44.645Z,971.46
2023-01-20T04:46:44.545Z,971.46
2023-01-20T04:47:44.462Z,971.50
2023-01-20T04:48:44.420Z,971.52
2023-01-20T04:49:44.291Z,971.53
2023-01-20T04:50:44.197Z,971.55
2023-01-20T04:51:44.110Z,971.58
2023-01-20T04:52:44.032Z,971.61
2023-01-20T04:53:43.938Z,971.62
2023-01-20T04:54:43.855Z,971.60
2023-01-20T04:55:43.778Z,971.64
2023-01-20T04:56:43.684Z,971.63
2023-01-20T04:57:43.597Z,971.67
2023-01-20T04:58:43.519Z,971.63
2023-01-20T04:59:43.429Z,971.64
2023-01-20T05:00:43.790Z,971.63
2023-01-20T05:01:43.374Z,971.67
2023-01-20T05:02:43.196Z,971.65
2023-01-20T05:03:43.074Z,971.69
2023-01-20T05:04:42.990Z,971.68
2023-01-20T05:05:42.903Z,971.69
2023-01-20T05:06:42.843Z,971.72
2023-01-20T05:07:42.727Z,971.69
2023-01-20T05:08:42.643Z,971.73
2023-01-20T05:09:42.554Z,971.76
2023-01-20T05:10:42.471Z,971.78
2023-01-20T05:11:42.381Z,971.76
2023-01-20T05:12:42.298Z,971.79
2023-01-20T05:13:42.206Z,971.82
2023-01-20T05:14:42.130Z,971.86
2023-01-20T05:15:42.075Z,971.84
2023-01-20T05:16:41.954Z,971.88
2023-01-20T05:17:41.883Z,971.91
2023-01-20T05:18:41.790Z,971.88
2023-01-20T05:19:41.696Z,971.92
2023-01-20T05:20:41.607Z,971.94
2023-01-20T05:21:41.523Z,971.96
2023-01-20T05:22:41.441Z,972.02
2023-01-20T05:23:41.348Z,972.02
2023-01-20T05:24:41.261Z,972.03
2023-01-20T05:25:41.180Z,972.04
2023-01-20T05:26:41.105Z,972.05
2023-01-20T05:27:41.001Z,972.09
2023-01-20T05:28:40.930Z,972.08
2023-01-20T05:29:40.832Z,972.13
2023-01-20T05:30:40.852Z,972.14
2023-01-20T05:31:40.694Z,972.14
2023-01-20T05:32:40.574Z,972.15
2023-01-20T05:33:40.483Z,972.21
2023-01-20T05:34:40.401Z,972.19
2023-01-20T05:35:40.316Z,972.22
2023-01-20T05:36:40.225Z,972.20
2023-01-20T05:37:40.139Z,972.22
2023-01-20T05:38:40.058Z,972.21
2023-01-20T05:39:39.966Z,972.25
2023-01-20T05:40:39.883Z,972.25
2023-01-20T05:41:39.790Z,972.24
2023-01-20T05:42:39.713Z,972.23
2023-01-20T05:43:39.622Z,972.29
2023-01-20T05:44:39.539Z,972.27
2023-01-20T05:45:39.446Z,972.30
2023-01-20T05:46:39.423Z,972.32
2023-01-20T05:47:39.280Z,972.31
2023-01-20T05:48:39.200Z,972.31
2023-01-20T05:49:39.118Z,972.33
2023-01-20T05:50:39.040Z,972.37
2023-01-20T05:51:38.932Z,972.36
2023-01-20T05:52:38.851Z,972.38
2023-01-20T05:53:38.759Z,972.41
2023-01-20T05:54:38.678Z,972.41
2023-01-20T05:55:38.587Z,972.44
2023-01-20T05:56:38.509Z,972.47
2023-01-20T05:57:38.414Z,972.48
2023-01-20T05:58:38.333Z,972.48
2023-01-20T05:59:38.240Z,972.48
2023-01-20T06:00:38.155Z,972.50
2023-01-20T06:01:38.148Z,972.50
2023-01-20T06:02:38.009Z,972.53
2023-01-20T06:03:37.956Z,972.53
2023-01-20T06:04:37.811Z,972.50
2023-01-20T06:05:37.728Z,972.53
2023-01-20T06:06:37.636Z,972.53
2023-01-20T06:07:37.573Z,972.54
2023-01-20T06:08:37.467Z,972.55
2023-01-20T06:09:37.382Z,972.54
2023-01-20T06:10:37.294Z,972.56
2023-01-20T06:11:37.203Z,972.57
2023-01-20T06:12:37.134Z,972.57
2023-01-20T06:13:37.034Z,972.58
2023-01-20T06:14:36.959Z,972.58
2023-01-20T06:15:36.864Z,972.64
2023-01-20T06:16:36.774Z,972.61
2023-01-20T06:17:36.686Z,972.62
2023-01-20T06:18:36.609Z,972.61
2023-01-20T06:19:36.516Z,972.63
2023-01-20T06:20:36.433Z,972.64
2023-01-20T06:21:36.348Z,972.69
2023-01-20T06:22:36.257Z,972.66
2023-01-20T06:23:36.174Z,972.66
2023-01-20T06:24:36.086Z,972.69
2023-01-20T06:25:36.004Z,972.66
2023-01-20T06:26:35.911Z,972.65
2023-01-20T06:27:35.824Z,972.66
2023-01-20T06:28:35.741Z,972.67
2023-01-20T06:29:35.661Z,972.69
2023-01-20T06:30:35.610Z,972.70
2023-01-20T06:31:35.514Z,972.71
2023-01-20T06:32:35.396Z,972.71
2023-01-20T06:33:35.303Z,972.74
2023-01-20T06:34:35.219Z,972.74
2023-01-20T06:35:35.142Z,972.75
2023-01-20T06:36:35.054Z,972.76
2023-01-20T06:37:34.961Z,972.79
2023-01-20T06:38:34.871Z,972.79
2023-01-20T06:39:34.793Z,972.82
2023-01-20T06:40:34.711Z,972.84
2023-01-20T06:41:34.639Z,972.85
2023-01-20T06:42:34.535Z,972.86
2023-01-20T06:43:34.462Z,972.85
2023-01-20T06:44:34.360Z,972.87
2023-01-20T06:45:34.273Z,972.87
2023-01-20T06:46:34.206Z,972.88
2023-01-20T06:47:34.106Z,972.90
2023-01-20T06:48:34.013Z,972.91
2023-01-20T06:49:33.933Z,972.91
2023-01-20T06:50:33.837Z,972.92
2023-01-20T06:51:33.780Z,972.97
2023-01-20T06:52:33.672Z,972.95
2023-01-20T06:53:33.588Z,972.93
2023-01-20T06:54:33.514Z,972.97
2023-01-20T06:55:33.408Z,972.95
2023-01-20T06:56:33.328Z,972.98
2023-01-20T06:57:33.233Z,972.96
2023-01-20T06:58:33.162Z,973.02
2023-01-20T06:59:33.064Z,973.00
2023-01-20T07:00:32.988Z,973.00
2023-01-20T07:01:32.983Z,973.02
2023-01-20T07:02:32.867Z,973.03
2023-01-20T07:03:32.717Z,973.06
2023-01-20T07:04:32.632Z,973.06
2023-01-20T07:05:32.547Z,973.07
2023-01-20T07:06:32.473Z,973.07
2023-01-20T07:07:32.408Z,973.10
2023-01-20T07:08:32.293Z,973.12
2023-01-20T07:09:32.205Z,973.12
2023-01-20T07:10:32.114Z,973.15
2023-01-20T07:11:32.029Z,973.14
2023-01-20T07:12:31.946Z,973.21
2023-01-20T07:13:31.868Z,973.21
2023-01-20T07:14:31.774Z,973.24
2023-01-20T07:15:31.684Z,973.26
2023-01-20T07:16:31.800Z,973.25
2023-01-20T07:17:31.517Z,973.27
2023-01-20T07:18:31.428Z,973.29
2023-01-20T07:19:31.339Z,973.29
2023-01-20T07:20:31.260Z,973.28
2023-01-20T07:21:31.164Z,973.33
2023-01-20T07:22:31.079Z,973.32
2023-01-20T07:23:30.998Z,973.35
2023-01-20T07:24:30.909Z,973.35
2023-01-20T07:25:30.823Z,973.36
2023-01-20T07:26:30.739Z,973.37
2023-01-20T07:27:30.649Z,973.39
2023-01-20T07:28:30.563Z,973.38
2023-01-20T07:29:30.471Z,973.40
2023-01-20T07:30:30.410Z,973.40
2023-01-20T07:31:30.333Z,973.44
2023-01-20T07:32:30.227Z,973.40
2023-01-20T07:33:30.127Z,973.43
2023-01-20T07:34:30.042Z,973.44
2023-01-20T07:35:29.959Z,973.47
2023-01-20T07:36:29.872Z,973.48
2023-01-20T07:37:29.779Z,973.51
2023-01-20T07:38:29.702Z,973.47
2023-01-20T07:39:29.613Z,973.48
2023-01-20T07:40:29.525Z,973.51
2023-01-20T07:41:29.443Z,973.50
2023-01-20T07:42:29.357Z,973.52
2023-01-20T07:43:29.266Z,973.52
2023-01-20T07:44:29.183Z,973.51
2023-01-20T07:45:29.132Z,973.52
2023-01-20T07:46:29.013Z,973.50
2023-01-20T07:47:28.922Z,973.53
2023-01-20T07:48:28.836Z,973.54
2023-01-20T07:49:28.750Z,973.58
2023-01-20T07:50:28.668Z,973.58
2023-01-20T07:51:28.589Z,973.57
2023-01-20T07:52:28.492Z,973.60
2023-01-20T07:53:28.400Z,973.60
2023-01-20T07:54:28.316Z,973.61
2023-01-20T07:55:28.234Z,973.58
2023-01-20T07:56:28.158Z,973.61
2023-01-20T07:57:28.057Z,973.63
2023-01-20T07:58:27.979Z,973.60
2023-01-20T07:59:27.896Z,973.60
2023-01-20T08:00:27.882Z,973.62
2023-01-20T08:01:27.804Z,973.65
2023-01-20T08:02:27.625Z,973.62
2023-01-20T08:03:27.596Z,973.66
2023-01-20T08:04:27.474Z,973.64
2023-01-20T08:05:27.372Z,973.67
2023-01-20T08:06:27.282Z,973.68
2023-01-20T08:07:27.198Z,973.73
2023-01-20T08:08:27.113Z,973.72
2023-01-20T08:09:27.024Z,973.74
2023-01-20T08:10:27.025Z,973.72
2023-01-20T08:11:26.883Z,973.75
2023-01-20T08:12:26.764Z,973.75
2023-01-20T08:13:26.681Z,973.79
2023-01-20T08:14:26.589Z,973.80
2023-01-20T08:15:26.505Z,973.78
2023-01-20T08:16:26.427Z,973.79
2023-01-20T08:17:26.330Z,973.79
2023-01-20T08:18:26.245Z,973.79
2023-01-20T08:19:26.159Z,973.82
2023-01-20T08:20:26.106Z,973.86
2023-01-20T08:21:25.993Z,973.80
2023-01-20T08:22:25.905Z,973.84
2023-01-20T08:23:25.813Z,973.86
2023-01-20T08:24:25.728Z,973.87
2023-01-20T08:25:25.648Z,973.85
2023-01-20T08:26:25.556Z,973.91
2023-01-20T08:27:25.516Z,973.90
2023-01-20T08:28:25.382Z,973.88
2023-01-20T08:29:25.303Z,973.94
2023-01-20T08:30:25.263Z,973.95
2023-01-20T08:31:25.339Z,973.98
2023-01-20T08:32:25.039Z,974.00
2023-01-20T08:33:24.955Z,974.02
2023-01-20T08:34:24.861Z,974.03
2023-01-20T08:35:24.784Z,974.02
2023-01-20T08:36:24.695Z,973.97
2023-01-20T08:37:24.611Z,974.04
2023-01-20T08:38:24.520Z,974.03
2023-01-20T08:39:24.462Z,974.07
2023-01-20T08:40:24.345Z,974.07
2023-01-20T08:41:24.265Z,974.07
2023-01-20T08:42:24.187Z,974.08
2023-01-20T08:43:24.154Z,974.10
2023-01-20T08:44:24.004Z,974.12
2023-01-20T08:45:23.918Z,974.12
2023-01-20T08:46:23.887Z,974.15
2023-01-20T08:47:23.773Z,974.16
2023-01-20T08:48:23.656Z,974.20
2023-01-20T08:49:23.672Z,974.22
2023-01-20T08:50:23.499Z,974.24
2023-01-20T08:51:23.434Z,974.25
2023-01-20T08:52:23.314Z,974.26
2023-01-20T08:53:23.223Z,974.26
2023-01-20T08:54:23.140Z,974.26
2023-01-20T08:55:23.050Z,974.27
2023-01-20T08:56:22.966Z,974.29
2023-01-20T08:57:22.880Z,974.30
2023-01-20T08:58:25.252Z,974.31
2023-01-20T08:59:22.714Z,974.30
2023-01-20T09:00:22.622Z,974.37
2023-01-20T09:01:22.556Z,974.38
2023-01-20T09:02:22.493Z,974.36
2023-01-20T09:03:22.362Z,974.39
2023-01-20T09:04:22.274Z,974.39
2023-01-20T09:05:22.189Z,974.40
2023-01-20T09:06:22.104Z,974.43
2023-01-20T09:07:22.021Z,974.44
2023-01-20T09:08:21.936Z,974.48
2023-01-20T09:09:21.843Z,974.45
2023-01-20T09:10:21.759Z,974.46
2023-01-20T09:11:21.712Z,974.47
2023-01-20T09:12:21.583Z,974.49
2023-01-20T09:13:21.501Z,974.48
2023-01-20T09:14:21.410Z,974.52
2023-01-20T09:15:21.332Z,974.54
2023-01-20T09:16:21.393Z,974.52
2023-01-20T09:17:21.160Z,974.57
2023-01-20T09:18:21.079Z,974.54
2023-01-20T09:19:20.990Z,974.56
2023-01-20T09:20:20.907Z,974.57
2023-01-20T09:21:20.813Z,974.56
2023-01-20T09:22:20.721Z,974.60
2023-01-20T09:23:20.645Z,974.63
2023-01-20T09:24:20.554Z,974.65
2023-01-20T09:25:20.464Z,974.61
2023-01-20T09:26:34.982Z,974.66
2023-01-20T09:27:20.300Z,974.64
2023-01-20T09:28:20.209Z,974.70
2023-01-20T09:29:20.124Z,974.66
2023-01-20T09:30:20.037Z,974.69
2023-01-20T09:31:20.059Z,974.73
2023-01-20T09:32:19.866Z,974.73
2023-01-20T09:33:19.779Z,974.73
2023-01-20T09:34:20.001Z,974.78
2023-01-20T09:35:19.615Z,974.78
2023-01-20T09:36:19.522Z,974.80
2023-01-20T09:37:19.447Z,974.83
2023-01-20T09:38:19.345Z,974.83
2023-01-20T09:39:19.265Z,974.80
2023-01-20T09:40:19.174Z,974.87
2023-01-20T09:41:19.087Z,974.87
2023-01-20T09:42:19.001Z,974.90
2023-01-20T09:43:18.917Z,974.90
2023-01-20T09:44:18.826Z,974.88
2023-01-20T09:45:18.743Z,974.90
2023-01-20T09:46:18.755Z,974.90
2023-01-20T09:47:18.587Z,974.91
2023-01-20T09:48:18.491Z,974.93
2023-01-20T09:49:18.411Z,974.95
2023-01-20T09:50:18.313Z,974.94
2023-01-20T09:51:18.227Z,974.92
2023-01-20T09:52:18.138Z,974.96
2023-01-20T09:53:18.053Z,974.97
2023-01-20T09:54:17.962Z,974.97
2023-01-20T09:55:17.878Z,974.97
2023-01-20T09:56:17.822Z,974.97
2023-01-20T09:57:17.714Z,974.97
2023-01-20T09:58:17.634Z,974.96
2023-01-20T09:59:17.534Z,975.00
2023-01-20T10:00:17.702Z,975.02
2023-01-20T10:01:17.390Z,975.01
2023-01-20T10:02:17.279Z,975.01
2023-01-20T10:03:17.212Z,975.05
2023-01-20T10:04:17.104Z,975.05
2023-01-20T10:05:17.095Z,975.06
2023-01-20T10:06:16.935Z,975.06
2023-01-20T10:07:16.846Z,975.06
2023-01-20T10:08:16.765Z,975.04
2023-01-20T10:09:16.679Z,975.04
2023-01-20T10:10:17.045Z,975.04
2023-01-20T10:11:16.546Z,975.03
2023-01-20T10:12:16.425Z,975.04
2023-01-20T10:13:16.329Z,975.06
2023-01-20T10:14:16.254Z,975.05
2023-01-20T10:15:16.159Z,975.06
2023-01-20T10:16:16.175Z,975.05
2023-01-20T10:17:15.991Z,975.05
2023-01-20T10:18:15.926Z,975.05
2023-01-20T10:19:15.829Z,975.02
2023-01-20T10:20:16.142Z,975.03
2023-01-20T10:21:15.641Z,975.04
2023-01-20T10:22:15.560Z,975.08
2023-01-20T10:23:15.484Z,975.06
2023-01-20T10:24:15.391Z,975.07
2023-01-20T10:25:15.302Z,975.03
2023-01-20T10:26:15.215Z,975.05
2023-01-20T10:27:15.133Z,975.06
2023-01-20T10:28:15.038Z,975.06
2023-01-20T10:29:14.957Z,975.08
2023-01-20T10:30:15.088Z,975.11
2023-01-20T10:31:14.835Z,975.09
2023-01-20T10:32:14.695Z,975.07
2023-01-20T10:33:14.610Z,975.11
2023-01-20T10:34:14.531Z,975.11
2023-01-20T10:35:14.800Z,975.14
2023-01-20T10:36:14.353Z,975.09
2023-01-20T10:37:14.268Z,975.12
2023-01-20T10:38:14.192Z,975.09
2023-01-20T10:39:14.114Z,975.11
2023-01-20T10:40:14.056Z,975.12
2023-01-20T10:41:15.900Z,975.14
2023-01-20T10:42:13.851Z,975.16
2023-01-20T10:43:13.761Z,975.15
2023-01-20T10:44:13.669Z,975.18
2023-01-20T10:45:13.945Z,975.17
2023-01-20T10:46:13.551Z,975.17
2023-01-20T10:47:13.752Z,975.16
2023-01-20T10:48:13.326Z,975.19
2023-01-20T10:49:13.245Z,975.20
2023-01-20T10:50:13.150Z,975.20
2023-01-20T10:51:13.151Z,975.23
2023-01-20T10:52:12.975Z,975.20
2023-01-20T10:53:13.685Z,975.20
2023-01-20T10:54:12.804Z,975.19
2023-01-20T10:55:13.243Z,975.19
2023-01-20T10:56:12.635Z,975.20
2023-01-20T10:57:12.552Z,975.22
2023-01-20T10:58:12.466Z,975.20
2023-01-20T10:59:12.382Z,975.21
2023-01-20T11:00:12.299Z,975.19
2023-01-20T11:01:12.206Z,975.19
2023-01-20T11:02:12.748Z,975.19
2023-01-20T11:03:12.107Z,975.21
2023-01-20T11:04:11.952Z,975.19
2023-01-20T11:05:11.870Z,975.20
2023-01-20T11:06:11.782Z,975.20
2023-01-20T11:07:11.704Z,975.24
2023-01-20T11:08:11.605Z,975.25
2023-01-20T11:09:11.521Z,975.27
2023-01-20T11:10:11.440Z,975.26
2023-01-20T11:11:11.355Z,975.25
2023-01-20T11:12:11.265Z,975.30
2023-01-20T11:13:11.184Z,975.33
2023-01-20T11:14:11.092Z,975.31
2023-01-20T11:15:11.006Z,975.31
2023-01-20T11:16:10.958Z,975.32
2023-01-20T11:17:10.838Z,975.26
2023-01-20T11:18:10.763Z,975.29
2023-01-20T11:19:10.670Z,975.34
2023-01-20T11:20:10.582Z,975.32
2023-01-20T11:21:10.491Z,975.30
2023-01-20T11:22:10.411Z,975.33
2023-01-20T11:23:10.322Z,975.33
2023-01-20T11:24:10.236Z,975.36
2023-01-20T11:25:10.153Z,975.31
2023-01-20T11:26:10.183Z,975.32
2023-01-20T11:27:09.981Z,975.34
2023-01-20T11:28:09.895Z,975.36
2023-01-20T11:29:09.817Z,975.35
2023-01-20T11:30:09.730Z,975.36
2023-01-20T11:31:09.782Z,975.36
2023-01-20T11:32:09.553Z,975.36
2023-01-20T11:33:09.539Z,975.34
2023-01-20T11:34:09.378Z,975.36
2023-01-20T11:35:09.298Z,975.35
2023-01-20T11:36:09.221Z,975.38
2023-01-20T11:37:09.126Z,975.37
2023-01-20T11:38:09.036Z,975.41
2023-01-20T11:39:08.966Z,975.36
2023-01-20T11:40:08.870Z,975.38
2023-01-20T11:41:08.781Z,975.40
2023-01-20T11:42:08.694Z,975.39
2023-01-20T11:43:08.615Z,975.39
2023-01-20T11:44:08.531Z,975.42
2023-01-20T11:45:20.823Z,975.42
2023-01-20T11:46:08.365Z,975.40
2023-01-20T11:47:08.269Z,975.39
2023-01-20T11:48:08.206Z,975.41
2023-01-20T11:49:08.104Z,975.41
2023-01-20T11:50:08.015Z,975.42
2023-01-20T11:51:07.929Z,975.43
2023-01-20T11:52:07.840Z,975.43
2023-01-20T11:53:07.758Z,975.43
2023-01-20T11:54:07.674Z,975.41
2023-01-20T11:55:07.606Z,975.43
2023-01-20T11:56:07.503Z,975.43
2023-01-20T11:57:07.414Z,975.44
2023-01-20T11:58:07.330Z,975.44
2023-01-20T11:59:07.245Z,975.45
2023-01-20T12:00:07.164Z,975.45
2023-01-20T12:01:07.107Z,975.46
2023-01-20T12:02:07.039Z,975.46
2023-01-20T12:03:06.906Z,975.47
2023-01-20T12:04:06.890Z,975.45
2023-01-20T12:05:06.735Z,975.47
2023-01-20T12:06:06.645Z,975.45
2023-01-20T12:07:06.567Z,975.46
2023-01-20T12:08:06.481Z,975.44
2023-01-20T12:09:06.400Z,975.50
2023-01-20T12:10:06.310Z,975.49
2023-01-20T12:11:06.272Z,975.45
2023-01-20T12:12:06.140Z,975.51
2023-01-20T12:13:06.055Z,975.48
2023-01-20T12:14:05.971Z,975.48
2023-01-20T12:15:05.893Z,975.50
2023-01-20T12:16:05.857Z,975.43
2023-01-20T12:17:05.723Z,975.43
2023-01-20T12:18:07.096Z,975.45
2023-01-20T12:19:05.540Z,975.46
2023-01-20T12:20:05.469Z,975.50
2023-01-20T12:21:05.369Z,975.45
2023-01-20T12:22:05.289Z,975.45
2023-01-20T12:23:05.203Z,975.44
2023-01-20T12:24:05.117Z,975.49
2023-01-20T12:25:05.045Z,975.48
2023-01-20T12:26:04.964Z,975.49
2023-01-20T12:27:04.866Z,975.51